sensor_id;sensor_type;location;lat;lon;timestamp;temperature;humidity
63383;DHT22;49512;48.744;9.176;2023-03-26T00:01:18;15.60;99.00
63383;DHT22;49512;48.744;9.176;2023-03-26T00:03:45;15.60;98.90
63383;DHT22;49512;48.744;9.176;2023-03-26T00:06:12;15.60;99.00
63383;DHT22;49512;48.744;9.176;2023-03-26T00:08:39;15.60;98.90
63383;DHT22;49512;48.744;9.176;2023-03-26T00:11:05;15.60;98.90
63383;DHT22;49512;48.744;9.176;2023-03-26T00:13:31;15.60;99.00
63383;DHT22;49512;48.744;9.176;2023-03-26T00:15:57;15.60;99.00
63383;DHT22;49512;48.744;9.176;2023-03-26T00:18:23;15.60;98.90
63383;DHT22;49512;48.744;9.176;2023-03-26T00:20:54;15.60;98.90
63383;DHT22;49512;48.744;9.176;2023-03-26T00:23:20;15.60;99.00
63383;DHT22;49512;48.744;9.176;2023-03-26T00:25:46;15.60;99.10
63383;DHT22;49512;48.744;9.176;2023-03-26T00:28:15;15.50;99.00
63383;DHT22;49512;48.744;9.176;2023-03-26T00:30:41;15.60;98.20
63383;DHT22;49512;48.744;9.176;2023-03-26T00:33:07;15.60;99.20
63383;DHT22;49512;48.744;9.176;2023-03-26T00:35:36;15.60;99.20
63383;DHT22;49512;48.744;9.176;2023-03-26T00:38:02;15.60;99.30
63383;DHT22;49512;48.744;9.176;2023-03-26T00:40:27;15.60;99.30
63383;DHT22;49512;48.744;9.176;2023-03-26T00:42:54;15.60;99.30
63383;DHT22;49512;48.744;9.176;2023-03-26T00:45:20;15.60;99.20
63383;DHT22;49512;48.744;9.176;2023-03-26T00:47:46;15.60;99.30
63383;DHT22;49512;48.744;9.176;2023-03-26T00:50:12;15.60;99.40
63383;DHT22;49512;48.744;9.176;2023-03-26T00:52:43;15.60;99.40
63383;DHT22;49512;48.744;9.176;2023-03-26T00:55:10;15.60;99.40
63383;DHT22;49512;48.744;9.176;2023-03-26T00:57:36;15.50;99.50
63383;DHT22;49512;48.744;9.176;2023-03-26T01:00:09;15.50;99.50
63383;DHT22;49512;48.744;9.176;2023-03-26T01:02:35;15.60;99.60
63383;DHT22;49512;48.744;9.176;2023-03-26T01:05:25;15.60;99.60
63383;DHT22;49512;48.744;9.176;2023-03-26T01:07:46;15.60;99.70
63383;DHT22;49512;48.744;9.176;2023-03-26T01:10:12;15.60;99.70
63383;DHT22;49512;48.744;9.176;2023-03-26T01:12:39;15.60;99.70
63383;DHT22;49512;48.744;9.176;2023-03-26T01:15:04;15.60;99.60
63383;DHT22;49512;48.744;9.176;2023-03-26T01:17:32;15.60;99.70
63383;DHT22;49512;48.744;9.176;2023-03-26T01:20:07;15.60;99.70
63383;DHT22;49512;48.744;9.176;2023-03-26T01:25:05;15.60;99.70
63383;DHT22;49512;48.744;9.176;2023-03-26T01:27:35;15.60;99.70
63383;DHT22;49512;48.744;9.176;2023-03-26T01:32:41;15.60;99.60
63383;DHT22;49512;48.744;9.176;2023-03-26T01:35:18;15.60;99.60
63383;DHT22;49512;48.744;9.176;2023-03-26T01:45:18;15.60;99.70
63383;DHT22;49512;48.744;9.176;2023-03-26T01:47:45;15.50;99.70
63383;DHT22;49512;48.744;9.176;2023-03-26T01:50:11;15.50;99.70
63383;DHT22;49512;48.744;9.176;2023-03-26T01:52:37;15.50;99.80
63383;DHT22;49512;48.744;9.176;2023-03-26T01:55:02;15.50;99.70
63383;DHT22;49512;48.744;9.176;2023-03-26T01:59:58;15.50;99.70
63383;DHT22;49512;48.744;9.176;2023-03-26T02:03:03;15.50;99.70
63383;DHT22;49512;48.744;9.176;2023-03-26T02:05:31;15.50;99.80
63383;DHT22;49512;48.744;9.176;2023-03-26T02:08:02;15.50;99.70
63383;DHT22;49512;48.744;9.176;2023-03-26T02:10:33;15.50;99.70
63383;DHT22;49512;48.744;9.176;2023-03-26T02:12:59;15.50;99.70
63383;DHT22;49512;48.744;9.176;2023-03-26T02:15:25;15.50;99.60
63383;DHT22;49512;48.744;9.176;2023-03-26T02:17:51;15.50;99.70
63383;DHT22;49512;48.744;9.176;2023-03-26T02:20:17;15.50;99.80
63383;DHT22;49512;48.744;9.176;2023-03-26T02:22:44;15.50;99.80
63383;DHT22;49512;48.744;9.176;2023-03-26T02:25:11;15.50;99.90
63383;DHT22;49512;48.744;9.176;2023-03-26T02:27:38;15.40;99.90
63383;DHT22;49512;48.744;9.176;2023-03-26T02:30:05;15.50;99.90
63383;DHT22;49512;48.744;9.176;2023-03-26T02:32:31;15.40;99.90
63383;DHT22;49512;48.744;9.176;2023-03-26T02:34:56;15.50;99.90
63383;DHT22;49512;48.744;9.176;2023-03-26T02:37:22;15.50;99.90
63383;DHT22;49512;48.744;9.176;2023-03-26T02:39:47;15.50;99.90
63383;DHT22;49512;48.744;9.176;2023-03-26T02:42:12;15.50;99.90
63383;DHT22;49512;48.744;9.176;2023-03-26T02:47:06;15.50;99.90
63383;DHT22;49512;48.744;9.176;2023-03-26T02:49:31;15.60;99.90
63383;DHT22;49512;48.744;9.176;2023-03-26T02:54:24;15.50;99.90
63383;DHT22;49512;48.744;9.176;2023-03-26T02:56:49;15.50;99.90
63383;DHT22;49512;48.744;9.176;2023-03-26T02:59:15;15.50;99.90
63383;DHT22;49512;48.744;9.176;2023-03-26T03:01:40;15.50;99.90
63383;DHT22;49512;48.744;9.176;2023-03-26T03:04:10;15.40;99.90
63383;DHT22;49512;48.744;9.176;2023-03-26T03:06:36;15.40;99.90
63383;DHT22;49512;48.744;9.176;2023-03-26T03:09:05;15.50;99.90
63383;DHT22;49512;48.744;9.176;2023-03-26T03:11:31;15.50;99.90
63383;DHT22;49512;48.744;9.176;2023-03-26T03:13:56;15.50;99.90
63383;DHT22;49512;48.744;9.176;2023-03-26T03:16:22;15.50;99.90
63383;DHT22;49512;48.744;9.176;2023-03-26T03:18:47;15.50;99.90
63383;DHT22;49512;48.744;9.176;2023-03-26T03:21:24;15.50;99.90
63383;DHT22;49512;48.744;9.176;2023-03-26T03:23:49;15.40;99.90
63383;DHT22;49512;48.744;9.176;2023-03-26T03:26:19;15.40;99.90
63383;DHT22;49512;48.744;9.176;2023-03-26T03:28:46;15.50;99.90
63383;DHT22;49512;48.744;9.176;2023-03-26T03:33:38;15.40;99.70
63383;DHT22;49512;48.744;9.176;2023-03-26T03:41:00;15.50;99.90
63383;DHT22;49512;48.744;9.176;2023-03-26T03:43:25;15.50;99.90
63383;DHT22;49512;48.744;9.176;2023-03-26T03:45:51;15.50;99.90
63383;DHT22;49512;48.744;9.176;2023-03-26T03:48:17;15.40;99.90
63383;DHT22;49512;48.744;9.176;2023-03-26T03:50:43;15.40;99.90
63383;DHT22;49512;48.744;9.176;2023-03-26T03:53:08;15.40;99.90
63383;DHT22;49512;48.744;9.176;2023-03-26T03:55:34;15.40;99.90
63383;DHT22;49512;48.744;9.176;2023-03-26T04:00:30;15.40;99.90
63383;DHT22;49512;48.744;9.176;2023-03-26T04:02:56;15.40;99.90
63383;DHT22;49512;48.744;9.176;2023-03-26T04:05:22;15.40;99.90
63383;DHT22;49512;48.744;9.176;2023-03-26T04:07:48;15.40;99.90
63383;DHT22;49512;48.744;9.176;2023-03-26T04:10:14;15.40;99.90
63383;DHT22;49512;48.744;9.176;2023-03-26T04:12:40;15.40;99.90
63383;DHT22;49512;48.744;9.176;2023-03-26T04:15:06;15.40;99.90
63383;DHT22;49512;48.744;9.176;2023-03-26T04:17:31;15.40;99.90
63383;DHT22;49512;48.744;9.176;2023-03-26T04:19:57;15.40;99.90
63383;DHT22;49512;48.744;9.176;2023-03-26T04:22:22;15.40;99.90
63383;DHT22;49512;48.744;9.176;2023-03-26T04:24:52;15.40;99.90
63383;DHT22;49512;48.744;9.176;2023-03-26T04:27:19;15.40;99.90
63383;DHT22;49512;48.744;9.176;2023-03-26T04:29:46;15.40;99.90
63383;DHT22;49512;48.744;9.176;2023-03-26T04:32:30;15.40;99.90
63383;DHT22;49512;48.744;9.176;2023-03-26T04:34:59;15.40;99.90
63383;DHT22;49512;48.744;9.176;2023-03-26T04:37:26;15.40;99.90
63383;DHT22;49512;48.744;9.176;2023-03-26T04:39:52;15.40;99.90
63383;DHT22;49512;48.744;9.176;2023-03-26T04:42:18;15.40;99.90
63383;DHT22;49512;48.744;9.176;2023-03-26T04:44:45;15.30;99.90
63383;DHT22;49512;48.744;9.176;2023-03-26T04:47:11;15.40;99.90
63383;DHT22;49512;48.744;9.176;2023-03-26T04:49:37;15.40;99.90
63383;DHT22;49512;48.744;9.176;2023-03-26T04:52:02;15.40;99.90
63383;DHT22;49512;48.744;9.176;2023-03-26T04:54:28;15.40;99.90
63383;DHT22;49512;48.744;9.176;2023-03-26T04:56:58;15.40;99.90
63383;DHT22;49512;48.744;9.176;2023-03-26T05:01:54;15.40;99.90
63383;DHT22;49512;48.744;9.176;2023-03-26T05:04:21;15.40;99.90
63383;DHT22;49512;48.744;9.176;2023-03-26T05:06:46;15.40;99.90
63383;DHT22;49512;48.744;9.176;2023-03-26T05:11:38;15.40;99.90
63383;DHT22;49512;48.744;9.176;2023-03-26T05:14:04;15.30;99.90
63383;DHT22;49512;48.744;9.176;2023-03-26T05:16:29;15.40;99.90
63383;DHT22;49512;48.744;9.176;2023-03-26T05:18:56;15.40;99.90
63383;DHT22;49512;48.744;9.176;2023-03-26T05:23:47;15.30;99.90
63383;DHT22;49512;48.744;9.176;2023-03-26T05:26:12;15.40;99.90
63383;DHT22;49512;48.744;9.176;2023-03-26T05:28:38;15.40;99.90
63383;DHT22;49512;48.744;9.176;2023-03-26T05:31:03;15.40;99.90
63383;DHT22;49512;48.744;9.176;2023-03-26T05:33:29;15.40;99.90
63383;DHT22;49512;48.744;9.176;2023-03-26T05:36:02;15.40;99.90
63383;DHT22;49512;48.744;9.176;2023-03-26T05:38:28;15.40;99.90
63383;DHT22;49512;48.744;9.176;2023-03-26T05:43:20;15.30;99.90
63383;DHT22;49512;48.744;9.176;2023-03-26T05:45:46;15.30;99.90
63383;DHT22;49512;48.744;9.176;2023-03-26T05:48:11;15.30;99.90
63383;DHT22;49512;48.744;9.176;2023-03-26T05:50:37;15.30;99.90
63383;DHT22;49512;48.744;9.176;2023-03-26T05:53:02;15.30;99.90
63383;DHT22;49512;48.744;9.176;2023-03-26T05:55:28;15.30;99.90
63383;DHT22;49512;48.744;9.176;2023-03-26T05:57:53;15.30;99.90
63383;DHT22;49512;48.744;9.176;2023-03-26T06:00:19;15.40;99.90
63383;DHT22;49512;48.744;9.176;2023-03-26T06:05:12;15.40;99.90
63383;DHT22;49512;48.744;9.176;2023-03-26T06:07:37;15.30;99.90
63383;DHT22;49512;48.744;9.176;2023-03-26T06:10:03;15.30;99.90
63383;DHT22;49512;48.744;9.176;2023-03-26T06:12:28;15.30;99.90
63383;DHT22;49512;48.744;9.176;2023-03-26T06:14:54;15.30;99.90
63383;DHT22;49512;48.744;9.176;2023-03-26T06:17:20;15.30;99.90
63383;DHT22;49512;48.744;9.176;2023-03-26T06:19:45;15.30;99.90
63383;DHT22;49512;48.744;9.176;2023-03-26T06:22:12;15.30;99.90
63383;DHT22;49512;48.744;9.176;2023-03-26T06:24:37;15.30;99.90
63383;DHT22;49512;48.744;9.176;2023-03-26T06:27:03;15.30;99.90
63383;DHT22;49512;48.744;9.176;2023-03-26T06:29:28;15.30;99.90
63383;DHT22;49512;48.744;9.176;2023-03-26T06:31:53;15.30;99.90
63383;DHT22;49512;48.744;9.176;2023-03-26T06:34:19;15.30;99.90
63383;DHT22;49512;48.744;9.176;2023-03-26T06:36:45;15.30;99.90
63383;DHT22;49512;48.744;9.176;2023-03-26T06:41:38;15.30;99.90
63383;DHT22;49512;48.744;9.176;2023-03-26T06:44:04;15.30;99.90
63383;DHT22;49512;48.744;9.176;2023-03-26T06:46:29;15.30;99.90
63383;DHT22;49512;48.744;9.176;2023-03-26T06:48:55;15.30;99.90
63383;DHT22;49512;48.744;9.176;2023-03-26T06:53:46;15.30;99.90
63383;DHT22;49512;48.744;9.176;2023-03-26T06:58:38;15.20;99.90
63383;DHT22;49512;48.744;9.176;2023-03-26T07:01:03;15.30;99.90
63383;DHT22;49512;48.744;9.176;2023-03-26T07:03:29;15.30;99.90
63383;DHT22;49512;48.744;9.176;2023-03-26T07:05:54;15.30;99.90
63383;DHT22;49512;48.744;9.176;2023-03-26T07:08:20;15.30;99.90
63383;DHT22;49512;48.744;9.176;2023-03-26T07:10:45;15.30;99.90
63383;DHT22;49512;48.744;9.176;2023-03-26T07:13:11;15.30;99.90
63383;DHT22;49512;48.744;9.176;2023-03-26T07:15:37;15.20;99.90
63383;DHT22;49512;48.744;9.176;2023-03-26T07:18:02;15.20;99.90
63383;DHT22;49512;48.744;9.176;2023-03-26T07:20:28;15.30;99.90
63383;DHT22;49512;48.744;9.176;2023-03-26T07:22:54;15.30;99.90
63383;DHT22;49512;48.744;9.176;2023-03-26T07:25:20;15.20;99.90
63383;DHT22;49512;48.744;9.176;2023-03-26T07:33:10;15.20;99.90
63383;DHT22;49512;48.744;9.176;2023-03-26T07:35:40;15.20;99.90
63383;DHT22;49512;48.744;9.176;2023-03-26T07:41:00;15.30;99.90
63383;DHT22;49512;48.744;9.176;2023-03-26T07:43:34;15.20;99.90
63383;DHT22;49512;48.744;9.176;2023-03-26T07:48:30;15.20;99.90
63383;DHT22;49512;48.744;9.176;2023-03-26T07:50:56;15.30;99.90
63383;DHT22;49512;48.744;9.176;2023-03-26T07:53:21;15.20;99.90
63383;DHT22;49512;48.744;9.176;2023-03-26T08:03:20;15.30;99.90
63383;DHT22;49512;48.744;9.176;2023-03-26T08:08:42;15.30;99.90
63383;DHT22;49512;48.744;9.176;2023-03-26T08:11:24;15.40;99.90
63383;DHT22;49512;48.744;9.176;2023-03-26T08:21:17;15.30;99.90
63383;DHT22;49512;48.744;9.176;2023-03-26T08:31:27;15.20;99.90
63383;DHT22;49512;48.744;9.176;2023-03-26T08:36:22;15.00;99.90
63383;DHT22;49512;48.744;9.176;2023-03-26T08:38:48;15.20;99.90
63383;DHT22;49512;48.744;9.176;2023-03-26T08:41:21;15.20;99.90
63383;DHT22;49512;48.744;9.176;2023-03-26T08:51:51;15.30;99.90
63383;DHT22;49512;48.744;9.176;2023-03-26T09:01:43;15.20;99.90
63383;DHT22;49512;48.744;9.176;2023-03-26T09:09:39;15.30;99.90
63383;DHT22;49512;48.744;9.176;2023-03-26T09:20:17;15.20;99.90
63383;DHT22;49512;48.744;9.176;2023-03-26T09:25:46;15.30;99.90
63383;DHT22;49512;48.744;9.176;2023-03-26T09:36:13;15.30;99.90
63383;DHT22;49512;48.744;9.176;2023-03-26T09:38:43;15.30;99.90
63383;DHT22;49512;48.744;9.176;2023-03-26T09:49:01;15.20;99.90
63383;DHT22;49512;48.744;9.176;2023-03-26T09:55:08;15.20;99.90
63383;DHT22;49512;48.744;9.176;2023-03-26T09:57:01;15.20;99.90
63383;DHT22;49512;48.744;9.176;2023-03-26T10:05:07;15.30;99.90
63383;DHT22;49512;48.744;9.176;2023-03-26T10:10:14;15.30;99.90
63383;DHT22;49512;48.744;9.176;2023-03-26T10:12:56;15.30;99.90
63383;DHT22;49512;48.744;9.176;2023-03-26T10:15:34;15.30;99.90
63383;DHT22;49512;48.744;9.176;2023-03-26T10:26:00;15.20;99.90
63383;DHT22;49512;48.744;9.176;2023-03-26T10:38:50;15.20;99.90
63383;DHT22;49512;48.744;9.176;2023-03-26T10:41:20;15.20;99.90
63383;DHT22;49512;48.744;9.176;2023-03-26T10:43:57;15.20;99.90
63383;DHT22;49512;48.744;9.176;2023-03-26T10:46:35;15.20;99.90
63383;DHT22;49512;48.744;9.176;2023-03-26T10:49:15;15.20;99.90
63383;DHT22;49512;48.744;9.176;2023-03-26T10:51:48;15.20;99.90
63383;DHT22;49512;48.744;9.176;2023-03-26T10:56:53;15.20;99.90
63383;DHT22;49512;48.744;9.176;2023-03-26T10:59:19;15.30;99.90
63383;DHT22;49512;48.744;9.176;2023-03-26T11:01:46;15.20;99.90
63383;DHT22;49512;48.744;9.176;2023-03-26T11:09:57;15.20;99.90
63383;DHT22;49512;48.744;9.176;2023-03-26T11:12:28;15.20;99.90
63383;DHT22;49512;48.744;9.176;2023-03-26T11:15:01;15.20;99.90
63383;DHT22;49512;48.744;9.176;2023-03-26T11:22:30;15.20;99.90
63383;DHT22;49512;48.744;9.176;2023-03-26T11:25:04;15.30;99.90
63383;DHT22;49512;48.744;9.176;2023-03-26T11:30:28;15.30;99.90
63383;DHT22;49512;48.744;9.176;2023-03-26T11:35:23;15.20;99.90
63383;DHT22;49512;48.744;9.176;2023-03-26T11:37:51;15.20;99.90
63383;DHT22;49512;48.744;9.176;2023-03-26T11:40:28;15.20;99.90
63383;DHT22;49512;48.744;9.176;2023-03-26T11:42:55;15.20;99.90
63383;DHT22;49512;48.744;9.176;2023-03-26T11:45:24;15.20;99.90
63383;DHT22;49512;48.744;9.176;2023-03-26T11:47:58;15.20;99.90
63383;DHT22;49512;48.744;9.176;2023-03-26T11:50:26;15.20;99.90
63383;DHT22;49512;48.744;9.176;2023-03-26T11:52:56;15.30;99.90
63383;DHT22;49512;48.744;9.176;2023-03-26T11:55:23;15.20;99.90
63383;DHT22;49512;48.744;9.176;2023-03-26T11:57:51;15.30;99.90
63383;DHT22;49512;48.744;9.176;2023-03-26T12:00:18;15.30;99.90
63383;DHT22;49512;48.744;9.176;2023-03-26T12:07:41;15.30;99.90
63383;DHT22;49512;48.744;9.176;2023-03-26T12:10:19;15.30;99.90
63383;DHT22;49512;48.744;9.176;2023-03-26T12:12:46;15.30;99.90
63383;DHT22;49512;48.744;9.176;2023-03-26T12:15:15;15.30;99.90
63383;DHT22;49512;48.744;9.176;2023-03-26T12:17:44;15.30;99.90
63383;DHT22;49512;48.744;9.176;2023-03-26T12:22:54;15.30;99.90
63383;DHT22;49512;48.744;9.176;2023-03-26T12:25:24;15.30;99.90
63383;DHT22;49512;48.744;9.176;2023-03-26T12:30:23;15.30;99.90
63383;DHT22;49512;48.744;9.176;2023-03-26T12:32:50;15.20;99.90
63383;DHT22;49512;48.744;9.176;2023-03-26T12:35:21;15.30;99.90
63383;DHT22;49512;48.744;9.176;2023-03-26T12:37:50;15.30;99.90
63383;DHT22;49512;48.744;9.176;2023-03-26T12:40:34;15.30;99.90
63383;DHT22;49512;48.744;9.176;2023-03-26T12:43:02;15.20;99.90
63383;DHT22;49512;48.744;9.176;2023-03-26T12:45:29;15.20;99.90
63383;DHT22;49512;48.744;9.176;2023-03-26T12:47:55;15.30;99.90
63383;DHT22;49512;48.744;9.176;2023-03-26T12:50:22;15.30;99.90
63383;DHT22;49512;48.744;9.176;2023-03-26T12:53:12;15.30;99.90
63383;DHT22;49512;48.744;9.176;2023-03-26T12:56:28;15.30;99.90
63383;DHT22;49512;48.744;9.176;2023-03-26T13:03:40;15.20;99.90
63383;DHT22;49512;48.744;9.176;2023-03-26T13:06:11;15.30;99.90
63383;DHT22;49512;48.744;9.176;2023-03-26T13:23:53;15.10;99.40
63383;DHT22;49512;48.744;9.176;2023-03-26T13:31:35;15.30;98.10
63383;DHT22;49512;48.744;9.176;2023-03-26T13:34:06;15.20;97.80
63383;DHT22;49512;48.744;9.176;2023-03-26T13:44:36;15.20;96.30
63383;DHT22;49512;48.744;9.176;2023-03-26T13:47:06;15.20;96.50
63383;DHT22;49512;48.744;9.176;2023-03-26T13:49:36;15.10;97.20
63383;DHT22;49512;48.744;9.176;2023-03-26T13:52:08;15.10;98.30
63383;DHT22;49512;48.744;9.176;2023-03-26T13:54:43;15.10;99.90
63383;DHT22;49512;48.744;9.176;2023-03-26T13:57:27;15.20;99.90
63383;DHT22;49512;48.744;9.176;2023-03-26T14:00:00;15.20;99.90
63383;DHT22;49512;48.744;9.176;2023-03-26T14:02:38;15.10;99.90
63383;DHT22;49512;48.744;9.176;2023-03-26T14:10:16;15.20;99.90
63383;DHT22;49512;48.744;9.176;2023-03-26T14:12:58;15.20;99.90
63383;DHT22;49512;48.744;9.176;2023-03-26T14:25:22;15.20;99.90
63383;DHT22;49512;48.744;9.176;2023-03-26T14:27:53;15.30;99.90
63383;DHT22;49512;48.744;9.176;2023-03-26T14:35:42;15.40;99.90
63383;DHT22;49512;48.744;9.176;2023-03-26T14:45:48;15.30;99.90
63383;DHT22;49512;48.744;9.176;2023-03-26T14:53:12;15.40;99.90
63383;DHT22;49512;48.744;9.176;2023-03-26T15:03:57;15.40;99.90
63383;DHT22;49512;48.744;9.176;2023-03-26T15:11:32;15.30;99.90
63383;DHT22;49512;48.744;9.176;2023-03-26T15:47:49;15.30;99.90
63383;DHT22;49512;48.744;9.176;2023-03-26T16:00:27;15.30;99.90
63383;DHT22;49512;48.744;9.176;2023-03-26T16:10:56;15.20;99.90
63383;DHT22;49512;48.744;9.176;2023-03-26T16:18:29;15.30;99.90
63383;DHT22;49512;48.744;9.176;2023-03-26T16:33:48;15.30;99.90
63383;DHT22;49512;48.744;9.176;2023-03-26T16:43:50;15.30;99.90
63383;DHT22;49512;48.744;9.176;2023-03-26T16:46:33;15.30;99.90
63383;DHT22;49512;48.744;9.176;2023-03-26T16:51:49;15.30;99.90
63383;DHT22;49512;48.744;9.176;2023-03-26T16:54:40;15.30;99.90
63383;DHT22;49512;48.744;9.176;2023-03-26T16:57:09;15.30;99.90
63383;DHT22;49512;48.744;9.176;2023-03-26T17:04:51;15.20;99.90
63383;DHT22;49512;48.744;9.176;2023-03-26T17:17:43;15.30;99.90
63383;DHT22;49512;48.744;9.176;2023-03-26T17:20:24;15.30;99.90
63383;DHT22;49512;48.744;9.176;2023-03-26T17:23:06;15.30;99.90
63383;DHT22;49512;48.744;9.176;2023-03-26T17:26:16;15.30;99.90
63383;DHT22;49512;48.744;9.176;2023-03-26T17:28:43;15.30;99.90
63383;DHT22;49512;48.744;9.176;2023-03-26T17:31:17;15.30;99.90
63383;DHT22;49512;48.744;9.176;2023-03-26T17:33:44;15.30;99.90
63383;DHT22;49512;48.744;9.176;2023-03-26T17:41:04;15.20;99.90
63383;DHT22;49512;48.744;9.176;2023-03-26T17:43:43;15.30;99.90
63383;DHT22;49512;48.744;9.176;2023-03-26T17:48:44;15.30;99.90
63383;DHT22;49512;48.744;9.176;2023-03-26T17:53:46;15.30;99.90
63383;DHT22;49512;48.744;9.176;2023-03-26T17:56:15;15.20;99.90
63383;DHT22;49512;48.744;9.176;2023-03-26T17:58:43;15.30;99.90
63383;DHT22;49512;48.744;9.176;2023-03-26T18:03:51;15.30;99.90
63383;DHT22;49512;48.744;9.176;2023-03-26T18:11:49;15.20;99.90
63383;DHT22;49512;48.744;9.176;2023-03-26T18:17:00;15.20;99.90
63383;DHT22;49512;48.744;9.176;2023-03-26T18:19:26;15.30;99.90
63383;DHT22;49512;48.744;9.176;2023-03-26T18:21:53;15.30;99.90
63383;DHT22;49512;48.744;9.176;2023-03-26T18:24:25;15.30;99.90
63383;DHT22;49512;48.744;9.176;2023-03-26T18:26:54;15.30;99.90
63383;DHT22;49512;48.744;9.176;2023-03-26T18:31:47;15.30;99.90
63383;DHT22;49512;48.744;9.176;2023-03-26T18:34:16;15.30;99.90
63383;DHT22;49512;48.744;9.176;2023-03-26T18:36:45;15.30;99.90
63383;DHT22;49512;48.744;9.176;2023-03-26T18:39:12;15.30;99.90
63383;DHT22;49512;48.744;9.176;2023-03-26T18:41:38;15.30;99.90
63383;DHT22;49512;48.744;9.176;2023-03-26T18:44:16;15.30;99.90
63383;DHT22;49512;48.744;9.176;2023-03-26T18:46:42;15.30;99.90
63383;DHT22;49512;48.744;9.176;2023-03-26T18:49:14;15.30;99.90
63383;DHT22;49512;48.744;9.176;2023-03-26T18:51:40;15.30;99.90
63383;DHT22;49512;48.744;9.176;2023-03-26T18:54:06;15.20;99.90
63383;DHT22;49512;48.744;9.176;2023-03-26T18:56:37;15.30;99.90
63383;DHT22;49512;48.744;9.176;2023-03-26T18:59:04;15.30;99.90
63383;DHT22;49512;48.744;9.176;2023-03-26T19:01:31;15.30;99.90
63383;DHT22;49512;48.744;9.176;2023-03-26T19:04:03;15.30;99.90
63383;DHT22;49512;48.744;9.176;2023-03-26T19:06:30;15.30;99.90
63383;DHT22;49512;48.744;9.176;2023-03-26T19:09:00;15.30;99.90
63383;DHT22;49512;48.744;9.176;2023-03-26T19:11:30;15.20;99.90
63383;DHT22;49512;48.744;9.176;2023-03-26T19:14:00;15.30;99.90
63383;DHT22;49512;48.744;9.176;2023-03-26T19:16:31;15.30;99.90
63383;DHT22;49512;48.744;9.176;2023-03-26T19:18:59;15.30;99.90
63383;DHT22;49512;48.744;9.176;2023-03-26T19:21:30;15.20;99.90
63383;DHT22;49512;48.744;9.176;2023-03-26T19:23:56;15.20;99.90
63383;DHT22;49512;48.744;9.176;2023-03-26T19:26:21;15.20;99.90
63383;DHT22;49512;48.744;9.176;2023-03-26T19:28:48;15.20;99.90
63383;DHT22;49512;48.744;9.176;2023-03-26T19:31:21;15.20;99.90
63383;DHT22;49512;48.744;9.176;2023-03-26T19:33:53;15.20;99.90
63383;DHT22;49512;48.744;9.176;2023-03-26T19:36:19;15.20;99.90
63383;DHT22;49512;48.744;9.176;2023-03-26T19:38:50;15.30;99.90
63383;DHT22;49512;48.744;9.176;2023-03-26T19:41:17;15.20;99.90
63383;DHT22;49512;48.744;9.176;2023-03-26T19:43:46;15.20;99.90
63383;DHT22;49512;48.744;9.176;2023-03-26T19:46:12;15.20;99.90
63383;DHT22;49512;48.744;9.176;2023-03-26T19:48:37;15.30;99.90
63383;DHT22;49512;48.744;9.176;2023-03-26T19:51:03;15.30;99.90
63383;DHT22;49512;48.744;9.176;2023-03-26T19:53:34;15.30;99.90
63383;DHT22;49512;48.744;9.176;2023-03-26T19:58:38;15.30;99.90
63383;DHT22;49512;48.744;9.176;2023-03-26T20:01:03;15.30;99.90
63383;DHT22;49512;48.744;9.176;2023-03-26T20:03:37;15.30;99.90
63383;DHT22;49512;48.744;9.176;2023-03-26T20:06:03;15.30;99.90
63383;DHT22;49512;48.744;9.176;2023-03-26T20:08:28;15.20;99.90
63383;DHT22;49512;48.744;9.176;2023-03-26T20:10:55;15.20;99.90
63383;DHT22;49512;48.744;9.176;2023-03-26T20:13:20;15.20;99.90
63383;DHT22;49512;48.744;9.176;2023-03-26T20:15:55;15.20;99.90
63383;DHT22;49512;48.744;9.176;2023-03-26T20:18:21;15.30;99.90
63383;DHT22;49512;48.744;9.176;2023-03-26T20:20:48;15.30;99.90
63383;DHT22;49512;48.744;9.176;2023-03-26T20:23:13;15.20;99.90
63383;DHT22;49512;48.744;9.176;2023-03-26T20:25:48;15.30;99.90
63383;DHT22;49512;48.744;9.176;2023-03-26T20:28:16;15.30;99.90
63383;DHT22;49512;48.744;9.176;2023-03-26T20:30:44;15.60;99.90
63383;DHT22;49512;48.744;9.176;2023-03-26T20:33:28;15.30;99.90
63383;DHT22;49512;48.744;9.176;2023-03-26T20:35:54;15.30;99.90
63383;DHT22;49512;48.744;9.176;2023-03-26T20:38:21;15.30;99.90
63383;DHT22;49512;48.744;9.176;2023-03-26T20:40:46;15.30;99.90
63383;DHT22;49512;48.744;9.176;2023-03-26T20:43:14;15.30;99.90
63383;DHT22;49512;48.744;9.176;2023-03-26T20:45:40;15.40;99.90
63383;DHT22;49512;48.744;9.176;2023-03-26T20:48:06;15.30;99.90
63383;DHT22;49512;48.744;9.176;2023-03-26T20:50:35;15.30;99.90
63383;DHT22;49512;48.744;9.176;2023-03-26T20:53:00;15.20;99.90
63383;DHT22;49512;48.744;9.176;2023-03-26T20:55:26;15.20;99.90
63383;DHT22;49512;48.744;9.176;2023-03-26T20:57:52;15.30;99.90
63383;DHT22;49512;48.744;9.176;2023-03-26T21:00:19;15.20;99.90
63383;DHT22;49512;48.744;9.176;2023-03-26T21:02:49;15.30;99.90
63383;DHT22;49512;48.744;9.176;2023-03-26T21:05:18;15.20;99.90
63383;DHT22;49512;48.744;9.176;2023-03-26T21:07:52;15.30;99.90
63383;DHT22;49512;48.744;9.176;2023-03-26T21:10:18;15.20;99.90
63383;DHT22;49512;48.744;9.176;2023-03-26T21:12:58;15.20;99.90
63383;DHT22;49512;48.744;9.176;2023-03-26T21:15:27;15.20;99.90
63383;DHT22;49512;48.744;9.176;2023-03-26T21:17:56;15.20;99.90
63383;DHT22;49512;48.744;9.176;2023-03-26T21:20:23;15.20;99.90
63383;DHT22;49512;48.744;9.176;2023-03-26T21:23:10;15.20;99.90
63383;DHT22;49512;48.744;9.176;2023-03-26T21:30:51;15.20;99.90
63383;DHT22;49512;48.744;9.176;2023-03-26T21:33:16;15.20;99.90
63383;DHT22;49512;48.744;9.176;2023-03-26T21:35:42;15.20;99.90
63383;DHT22;49512;48.744;9.176;2023-03-26T21:38:09;15.20;99.90
63383;DHT22;49512;48.744;9.176;2023-03-26T21:40:35;15.20;99.90
63383;DHT22;49512;48.744;9.176;2023-03-26T21:43:00;15.20;99.90
63383;DHT22;49512;48.744;9.176;2023-03-26T21:45:26;15.20;99.90
63383;DHT22;49512;48.744;9.176;2023-03-26T21:47:52;15.20;99.90
63383;DHT22;49512;48.744;9.176;2023-03-26T21:50:18;15.20;99.90
63383;DHT22;49512;48.744;9.176;2023-03-26T21:52:44;15.20;99.90
63383;DHT22;49512;48.744;9.176;2023-03-26T21:55:22;15.20;99.90
63383;DHT22;49512;48.744;9.176;2023-03-26T22:00:14;15.20;99.90
63383;DHT22;49512;48.744;9.176;2023-03-26T22:02:58;15.20;99.90
63383;DHT22;49512;48.744;9.176;2023-03-26T22:07:59;15.20;99.90
63383;DHT22;49512;48.744;9.176;2023-03-26T22:10:25;15.20;99.90
63383;DHT22;49512;48.744;9.176;2023-03-26T22:12:51;15.20;99.90
63383;DHT22;49512;48.744;9.176;2023-03-26T22:15:17;15.20;99.90
63383;DHT22;49512;48.744;9.176;2023-03-26T22:17:43;15.20;99.90
63383;DHT22;49512;48.744;9.176;2023-03-26T22:20:10;15.20;99.90
63383;DHT22;49512;48.744;9.176;2023-03-26T22:22:40;15.20;99.90
63383;DHT22;49512;48.744;9.176;2023-03-26T22:25:13;15.20;99.90